sensor_id;sensor_type;location;lat;lon;timestamp;temperature;humidity
66728;DHT22;53641;44.274;19.890;2022-09-13T00:00:59;17.20;99.90
66728;DHT22;53641;44.274;19.890;2022-09-13T00:03:26;17.20;99.90
66728;DHT22;53641;44.274;19.890;2022-09-13T00:05:52;17.20;99.90
66728;DHT22;53641;44.274;19.890;2022-09-13T00:08:18;17.20;99.90
66728;DHT22;53641;44.274;19.890;2022-09-13T00:10:45;17.10;99.90
66728;DHT22;53641;44.274;19.890;2022-09-13T00:13:12;17.10;99.90
66728;DHT22;53641;44.274;19.890;2022-09-13T00:15:42;17.00;99.90
66728;DHT22;53641;44.274;19.890;2022-09-13T00:18:08;16.90;99.90
66728;DHT22;53641;44.274;19.890;2022-09-13T00:20:34;16.90;99.90
66728;DHT22;53641;44.274;19.890;2022-09-13T00:23:00;16.80;99.90
66728;DHT22;53641;44.274;19.890;2022-09-13T00:25:25;16.90;99.90
66728;DHT22;53641;44.274;19.890;2022-09-13T00:27:51;16.90;99.90
66728;DHT22;53641;44.274;19.890;2022-09-13T00:30:17;16.90;99.90
66728;DHT22;53641;44.274;19.890;2022-09-13T00:32:43;16.90;99.90
66728;DHT22;53641;44.274;19.890;2022-09-13T00:35:09;16.90;99.90
66728;DHT22;53641;44.274;19.890;2022-09-13T00:37:35;16.90;99.90
66728;DHT22;53641;44.274;19.890;2022-09-13T00:40:01;16.90;99.90
66728;DHT22;53641;44.274;19.890;2022-09-13T00:42:30;16.80;99.90
66728;DHT22;53641;44.274;19.890;2022-09-13T00:45:14;16.80;99.90
66728;DHT22;53641;44.274;19.890;2022-09-13T00:47:54;16.70;99.90
66728;DHT22;53641;44.274;19.890;2022-09-13T00:50:30;16.70;99.90
66728;DHT22;53641;44.274;19.890;2022-09-13T00:53:14;16.60;99.90
66728;DHT22;53641;44.274;19.890;2022-09-13T00:56:01;16.60;99.90
66728;DHT22;53641;44.274;19.890;2022-09-13T00:58:41;16.50;99.90
66728;DHT22;53641;44.274;19.890;2022-09-13T01:01:12;16.40;99.90
66728;DHT22;53641;44.274;19.890;2022-09-13T01:03:39;16.40;99.90
66728;DHT22;53641;44.274;19.890;2022-09-13T01:06:08;16.40;99.90
66728;DHT22;53641;44.274;19.890;2022-09-13T01:08:37;16.30;99.90
66728;DHT22;53641;44.274;19.890;2022-09-13T01:11:05;16.30;99.90
66728;DHT22;53641;44.274;19.890;2022-09-13T01:13:37;16.40;99.90
66728;DHT22;53641;44.274;19.890;2022-09-13T01:16:04;16.30;99.90
66728;DHT22;53641;44.274;19.890;2022-09-13T01:18:30;16.20;99.90
66728;DHT22;53641;44.274;19.890;2022-09-13T01:21:23;16.20;99.90
66728;DHT22;53641;44.274;19.890;2022-09-13T01:24:16;16.20;99.90
66728;DHT22;53641;44.274;19.890;2022-09-13T01:27:02;16.20;99.90
66728;DHT22;53641;44.274;19.890;2022-09-13T01:30:07;16.10;99.90
66728;DHT22;53641;44.274;19.890;2022-09-13T01:32:45;16.10;99.90
66728;DHT22;53641;44.274;19.890;2022-09-13T01:35:56;16.00;99.90
66728;DHT22;53641;44.274;19.890;2022-09-13T01:38:48;16.00;99.90
66728;DHT22;53641;44.274;19.890;2022-09-13T01:41:42;16.00;99.90
66728;DHT22;53641;44.274;19.890;2022-09-13T01:44:46;16.00;99.90
66728;DHT22;53641;44.274;19.890;2022-09-13T01:47:26;16.00;99.90
66728;DHT22;53641;44.274;19.890;2022-09-13T01:50:02;15.90;99.90
66728;DHT22;53641;44.274;19.890;2022-09-13T01:52:49;16.00;99.90
66728;DHT22;53641;44.274;19.890;2022-09-13T01:55:22;15.90;99.90
66728;DHT22;53641;44.274;19.890;2022-09-13T01:57:56;15.80;99.90
66728;DHT22;53641;44.274;19.890;2022-09-13T02:00:26;15.80;99.90
66728;DHT22;53641;44.274;19.890;2022-09-13T02:03:10;15.80;99.90
66728;DHT22;53641;44.274;19.890;2022-09-13T02:05:42;15.80;99.90
66728;DHT22;53641;44.274;19.890;2022-09-13T02:08:14;15.80;99.90
66728;DHT22;53641;44.274;19.890;2022-09-13T02:10:45;15.80;99.90
66728;DHT22;53641;44.274;19.890;2022-09-13T02:13:15;15.80;99.90
66728;DHT22;53641;44.274;19.890;2022-09-13T02:15:46;15.90;99.90
66728;DHT22;53641;44.274;19.890;2022-09-13T02:18:39;15.80;99.90
66728;DHT22;53641;44.274;19.890;2022-09-13T02:21:12;15.80;99.90
66728;DHT22;53641;44.274;19.890;2022-09-13T02:23:55;15.70;99.90
66728;DHT22;53641;44.274;19.890;2022-09-13T02:26:23;15.70;99.90
66728;DHT22;53641;44.274;19.890;2022-09-13T02:28:51;15.70;99.90
66728;DHT22;53641;44.274;19.890;2022-09-13T02:31:27;15.70;99.90
66728;DHT22;53641;44.274;19.890;2022-09-13T02:33:57;15.70;99.90
66728;DHT22;53641;44.274;19.890;2022-09-13T02:36:27;15.70;99.90
66728;DHT22;53641;44.274;19.890;2022-09-13T02:39:03;15.70;99.90
66728;DHT22;53641;44.274;19.890;2022-09-13T02:41:55;15.80;99.90
66728;DHT22;53641;44.274;19.890;2022-09-13T02:44:30;15.80;99.90
66728;DHT22;53641;44.274;19.890;2022-09-13T02:47:40;15.80;99.90
66728;DHT22;53641;44.274;19.890;2022-09-13T02:49:56;15.80;99.90
66728;DHT22;53641;44.274;19.890;2022-09-13T02:52:37;15.70;99.90
66728;DHT22;53641;44.274;19.890;2022-09-13T02:55:19;15.70;99.90
66728;DHT22;53641;44.274;19.890;2022-09-13T02:57:59;15.60;99.90
66728;DHT22;53641;44.274;19.890;2022-09-13T03:00:26;15.60;99.90
66728;DHT22;53641;44.274;19.890;2022-09-13T03:02:55;15.50;99.90
66728;DHT22;53641;44.274;19.890;2022-09-13T03:05:21;15.40;99.90
66728;DHT22;53641;44.274;19.890;2022-09-13T03:07:48;15.40;99.90
66728;DHT22;53641;44.274;19.890;2022-09-13T03:10:14;15.30;99.90
66728;DHT22;53641;44.274;19.890;2022-09-13T03:12:58;15.30;99.90
66728;DHT22;53641;44.274;19.890;2022-09-13T03:15:42;15.30;99.90
66728;DHT22;53641;44.274;19.890;2022-09-13T03:18:24;15.30;99.90
66728;DHT22;53641;44.274;19.890;2022-09-13T03:21:13;15.20;99.90
66728;DHT22;53641;44.274;19.890;2022-09-13T03:23:57;15.20;99.90
66728;DHT22;53641;44.274;19.890;2022-09-13T03:26:35;15.20;99.90
66728;DHT22;53641;44.274;19.890;2022-09-13T03:29:16;15.20;99.90
66728;DHT22;53641;44.274;19.890;2022-09-13T03:31:50;15.30;99.90
66728;DHT22;53641;44.274;19.890;2022-09-13T03:34:28;15.30;99.90
66728;DHT22;53641;44.274;19.890;2022-09-13T03:37:03;15.30;99.90
66728;DHT22;53641;44.274;19.890;2022-09-13T03:39:56;15.40;99.90
66728;DHT22;53641;44.274;19.890;2022-09-13T03:42:31;15.40;99.90
66728;DHT22;53641;44.274;19.890;2022-09-13T03:44:59;15.40;99.90
66728;DHT22;53641;44.274;19.890;2022-09-13T03:47:27;15.30;99.90
66728;DHT22;53641;44.274;19.890;2022-09-13T03:49:56;15.20;99.90
66728;DHT22;53641;44.274;19.890;2022-09-13T03:52:23;15.20;99.90
66728;DHT22;53641;44.274;19.890;2022-09-13T03:54:49;15.10;99.90
66728;DHT22;53641;44.274;19.890;2022-09-13T03:57:18;15.00;99.90
66728;DHT22;53641;44.274;19.890;2022-09-13T03:59:51;15.10;99.90
66728;DHT22;53641;44.274;19.890;2022-09-13T04:02:19;15.10;99.90
66728;DHT22;53641;44.274;19.890;2022-09-13T04:04:45;15.00;99.90
66728;DHT22;53641;44.274;19.890;2022-09-13T04:07:14;15.00;99.90
66728;DHT22;53641;44.274;19.890;2022-09-13T04:09:40;15.00;99.90
66728;DHT22;53641;44.274;19.890;2022-09-13T04:12:06;15.00;99.90
66728;DHT22;53641;44.274;19.890;2022-09-13T04:14:32;14.90;99.90
66728;DHT22;53641;44.274;19.890;2022-09-13T04:16:58;15.00;99.90
66728;DHT22;53641;44.274;19.890;2022-09-13T04:19:24;15.00;99.90
66728;DHT22;53641;44.274;19.890;2022-09-13T04:21:52;14.90;99.90
66728;DHT22;53641;44.274;19.890;2022-09-13T04:24:19;14.90;99.90
66728;DHT22;53641;44.274;19.890;2022-09-13T04:26:48;14.80;99.90
66728;DHT22;53641;44.274;19.890;2022-09-13T04:29:15;14.80;99.90
66728;DHT22;53641;44.274;19.890;2022-09-13T04:31:41;14.80;99.90
66728;DHT22;53641;44.274;19.890;2022-09-13T04:34:07;14.90;99.90
66728;DHT22;53641;44.274;19.890;2022-09-13T04:36:33;14.90;99.90
66728;DHT22;53641;44.274;19.890;2022-09-13T04:39:02;15.20;99.90
66728;DHT22;53641;44.274;19.890;2022-09-13T04:41:28;15.70;99.90
66728;DHT22;53641;44.274;19.890;2022-09-13T04:43:54;16.10;99.90
66728;DHT22;53641;44.274;19.890;2022-09-13T04:46:20;16.20;99.90
66728;DHT22;53641;44.274;19.890;2022-09-13T04:48:50;16.20;99.90
66728;DHT22;53641;44.274;19.890;2022-09-13T04:51:16;16.30;99.90
66728;DHT22;53641;44.274;19.890;2022-09-13T04:53:43;16.50;99.90
66728;DHT22;53641;44.274;19.890;2022-09-13T04:56:09;16.60;99.90
66728;DHT22;53641;44.274;19.890;2022-09-13T04:58:35;16.60;99.90
66728;DHT22;53641;44.274;19.890;2022-09-13T05:01:05;16.70;99.90
66728;DHT22;53641;44.274;19.890;2022-09-13T05:03:32;16.40;99.90
66728;DHT22;53641;44.274;19.890;2022-09-13T05:06:03;16.30;99.90
66728;DHT22;53641;44.274;19.890;2022-09-13T05:08:29;16.10;99.90
66728;DHT22;53641;44.274;19.890;2022-09-13T05:10:55;16.00;99.90
66728;DHT22;53641;44.274;19.890;2022-09-13T05:13:21;16.00;99.90
66728;DHT22;53641;44.274;19.890;2022-09-13T05:15:47;16.00;99.90
66728;DHT22;53641;44.274;19.890;2022-09-13T05:18:12;15.90;99.90
66728;DHT22;53641;44.274;19.890;2022-09-13T05:20:38;16.00;99.90
66728;DHT22;53641;44.274;19.890;2022-09-13T05:23:04;16.00;99.90
66728;DHT22;53641;44.274;19.890;2022-09-13T05:25:30;16.00;99.90
66728;DHT22;53641;44.274;19.890;2022-09-13T05:27:55;16.00;99.90
66728;DHT22;53641;44.274;19.890;2022-09-13T05:30:21;16.10;99.90
66728;DHT22;53641;44.274;19.890;2022-09-13T05:32:47;16.20;99.90
66728;DHT22;53641;44.274;19.890;2022-09-13T05:35:13;16.40;99.90
66728;DHT22;53641;44.274;19.890;2022-09-13T05:37:38;16.60;99.90
66728;DHT22;53641;44.274;19.890;2022-09-13T05:40:05;16.80;99.90
66728;DHT22;53641;44.274;19.890;2022-09-13T05:42:31;17.00;99.90
66728;DHT22;53641;44.274;19.890;2022-09-13T05:44:57;17.30;99.90
66728;DHT22;53641;44.274;19.890;2022-09-13T05:47:23;17.30;99.90
66728;DHT22;53641;44.274;19.890;2022-09-13T05:49:48;17.40;99.90
66728;DHT22;53641;44.274;19.890;2022-09-13T05:52:14;17.50;99.90
66728;DHT22;53641;44.274;19.890;2022-09-13T05:54:40;17.50;99.90
66728;DHT22;53641;44.274;19.890;2022-09-13T05:57:06;17.60;99.90
66728;DHT22;53641;44.274;19.890;2022-09-13T05:59:34;17.70;99.90
66728;DHT22;53641;44.274;19.890;2022-09-13T06:02:00;17.70;99.90
66728;DHT22;53641;44.274;19.890;2022-09-13T06:04:26;17.80;99.90
66728;DHT22;53641;44.274;19.890;2022-09-13T06:06:52;17.90;99.90
66728;DHT22;53641;44.274;19.890;2022-09-13T06:09:18;18.00;99.90
66728;DHT22;53641;44.274;19.890;2022-09-13T06:11:44;18.10;99.90
66728;DHT22;53641;44.274;19.890;2022-09-13T06:14:10;18.40;99.90
66728;DHT22;53641;44.274;19.890;2022-09-13T06:16:36;18.70;99.90
66728;DHT22;53641;44.274;19.890;2022-09-13T06:19:04;19.10;99.90
66728;DHT22;53641;44.274;19.890;2022-09-13T06:21:31;19.50;99.90
66728;DHT22;53641;44.274;19.890;2022-09-13T06:23:57;19.80;99.90
66728;DHT22;53641;44.274;19.890;2022-09-13T06:26:24;19.90;99.90
66728;DHT22;53641;44.274;19.890;2022-09-13T06:28:52;20.10;99.90
66728;DHT22;53641;44.274;19.890;2022-09-13T06:31:20;21.60;99.90
66728;DHT22;53641;44.274;19.890;2022-09-13T06:33:46;21.80;99.90
66728;DHT22;53641;44.274;19.890;2022-09-13T06:36:14;21.90;99.90
66728;DHT22;53641;44.274;19.890;2022-09-13T06:38:40;21.80;99.90
66728;DHT22;53641;44.274;19.890;2022-09-13T06:41:08;23.30;98.80
66728;DHT22;53641;44.274;19.890;2022-09-13T06:43:35;24.90;96.10
66728;DHT22;53641;44.274;19.890;2022-09-13T06:46:02;26.50;92.20
66728;DHT22;53641;44.274;19.890;2022-09-13T06:48:34;26.60;89.90
66728;DHT22;53641;44.274;19.890;2022-09-13T06:51:02;26.70;90.00
66728;DHT22;53641;44.274;19.890;2022-09-13T06:53:29;27.30;87.70
66728;DHT22;53641;44.274;19.890;2022-09-13T06:56:04;26.90;84.60
66728;DHT22;53641;44.274;19.890;2022-09-13T06:58:30;27.30;84.40
66728;DHT22;53641;44.274;19.890;2022-09-13T07:01:08;28.00;81.50
66728;DHT22;53641;44.274;19.890;2022-09-13T07:03:42;29.00;80.40
66728;DHT22;53641;44.274;19.890;2022-09-13T07:06:09;29.90;76.30
66728;DHT22;53641;44.274;19.890;2022-09-13T07:08:35;30.40;74.60
66728;DHT22;53641;44.274;19.890;2022-09-13T07:11:01;30.70;74.20
66728;DHT22;53641;44.274;19.890;2022-09-13T07:13:27;30.80;72.10
66728;DHT22;53641;44.274;19.890;2022-09-13T07:15:53;31.40;71.20
66728;DHT22;53641;44.274;19.890;2022-09-13T07:18:18;31.60;70.80
66728;DHT22;53641;44.274;19.890;2022-09-13T07:20:44;31.20;70.70
66728;DHT22;53641;44.274;19.890;2022-09-13T07:23:10;31.30;69.80
66728;DHT22;53641;44.274;19.890;2022-09-13T07:25:36;30.90;69.10
66728;DHT22;53641;44.274;19.890;2022-09-13T07:30:28;30.40;70.10
66728;DHT22;53641;44.274;19.890;2022-09-13T07:32:54;30.70;71.20
66728;DHT22;53641;44.274;19.890;2022-09-13T07:35:19;31.30;69.00
66728;DHT22;53641;44.274;19.890;2022-09-13T07:37:45;30.50;68.80
66728;DHT22;53641;44.274;19.890;2022-09-13T07:40:11;31.30;68.70
66728;DHT22;53641;44.274;19.890;2022-09-13T07:42:38;31.70;68.80
66728;DHT22;53641;44.274;19.890;2022-09-13T07:45:04;32.00;67.80
66728;DHT22;53641;44.274;19.890;2022-09-13T07:49:58;32.70;66.40
66728;DHT22;53641;44.274;19.890;2022-09-13T07:52:23;32.70;67.40
66728;DHT22;53641;44.274;19.890;2022-09-13T07:54:57;32.90;66.00
66728;DHT22;53641;44.274;19.890;2022-09-13T07:57:23;32.90;66.20
66728;DHT22;53641;44.274;19.890;2022-09-13T07:59:49;32.20;65.30
66728;DHT22;53641;44.274;19.890;2022-09-13T08:02:16;31.30;66.20
66728;DHT22;53641;44.274;19.890;2022-09-13T08:04:42;31.50;66.60
66728;DHT22;53641;44.274;19.890;2022-09-13T08:07:08;31.20;65.70
66728;DHT22;53641;44.274;19.890;2022-09-13T08:09:34;31.50;66.80
66728;DHT22;53641;44.274;19.890;2022-09-13T08:12:00;31.80;65.90
66728;DHT22;53641;44.274;19.890;2022-09-13T08:14:26;32.00;66.10
66728;DHT22;53641;44.274;19.890;2022-09-13T08:16:55;32.70;65.60
66728;DHT22;53641;44.274;19.890;2022-09-13T08:19:24;32.90;63.30
66728;DHT22;53641;44.274;19.890;2022-09-13T08:21:50;32.60;63.90
66728;DHT22;53641;44.274;19.890;2022-09-13T08:24:18;32.60;62.70
66728;DHT22;53641;44.274;19.890;2022-09-13T08:26:44;32.50;63.50
66728;DHT22;53641;44.274;19.890;2022-09-13T08:31:37;31.60;63.00
66728;DHT22;53641;44.274;19.890;2022-09-13T08:34:03;31.50;65.20
66728;DHT22;53641;44.274;19.890;2022-09-13T08:36:29;31.40;64.30
66728;DHT22;53641;44.274;19.890;2022-09-13T08:38:58;31.50;64.80
66728;DHT22;53641;44.274;19.890;2022-09-13T08:41:48;31.50;64.80
66728;DHT22;53641;44.274;19.890;2022-09-13T08:44:25;31.50;64.70
66728;DHT22;53641;44.274;19.890;2022-09-13T08:47:06;31.50;64.60
66728;DHT22;53641;44.274;19.890;2022-09-13T08:49:45;31.50;64.30
66728;DHT22;53641;44.274;19.890;2022-09-13T08:52:26;31.30;64.10
66728;DHT22;53641;44.274;19.890;2022-09-13T08:54:53;31.60;65.00
66728;DHT22;53641;44.274;19.890;2022-09-13T08:57:39;32.10;61.90
66728;DHT22;53641;44.274;19.890;2022-09-13T09:00:18;32.10;62.80
66728;DHT22;53641;44.274;19.890;2022-09-13T09:02:58;32.30;62.70
66728;DHT22;53641;44.274;19.890;2022-09-13T09:05:28;32.20;61.30
66728;DHT22;53641;44.274;19.890;2022-09-13T09:08:01;31.70;60.40
66728;DHT22;53641;44.274;19.890;2022-09-13T09:10:31;31.50;61.10
66728;DHT22;53641;44.274;19.890;2022-09-13T09:13:03;30.90;61.30
66728;DHT22;53641;44.274;19.890;2022-09-13T09:15:34;30.80;61.70
66728;DHT22;53641;44.274;19.890;2022-09-13T09:18:05;30.60;61.30
66728;DHT22;53641;44.274;19.890;2022-09-13T09:20:49;30.10;61.00
66728;DHT22;53641;44.274;19.890;2022-09-13T09:23:20;30.20;61.00
66728;DHT22;53641;44.274;19.890;2022-09-13T09:25:47;29.90;60.90
66728;DHT22;53641;44.274;19.890;2022-09-13T09:28:16;29.60;63.20
66728;DHT22;53641;44.274;19.890;2022-09-13T09:31:01;29.90;63.20
66728;DHT22;53641;44.274;19.890;2022-09-13T09:33:39;29.90;62.50
66728;DHT22;53641;44.274;19.890;2022-09-13T09:36:24;29.90;61.50
66728;DHT22;53641;44.274;19.890;2022-09-13T09:38:53;30.00;62.90
66728;DHT22;53641;44.274;19.890;2022-09-13T09:41:28;29.90;63.00
66728;DHT22;53641;44.274;19.890;2022-09-13T09:44:17;30.00;61.40
66728;DHT22;53641;44.274;19.890;2022-09-13T09:46:45;30.00;61.50
66728;DHT22;53641;44.274;19.890;2022-09-13T09:49:22;29.90;62.50
66728;DHT22;53641;44.274;19.890;2022-09-13T09:52:13;29.60;62.20
66728;DHT22;53641;44.274;19.890;2022-09-13T09:54:42;29.20;62.30
66728;DHT22;53641;44.274;19.890;2022-09-13T09:57:14;28.90;63.20
66728;DHT22;53641;44.274;19.890;2022-09-13T09:59:40;28.00;62.80
66728;DHT22;53641;44.274;19.890;2022-09-13T10:02:17;27.70;63.50
66728;DHT22;53641;44.274;19.890;2022-09-13T10:04:53;27.70;64.30
66728;DHT22;53641;44.274;19.890;2022-09-13T10:07:24;27.50;65.10
66728;DHT22;53641;44.274;19.890;2022-09-13T10:09:57;27.70;65.80
66728;DHT22;53641;44.274;19.890;2022-09-13T10:12:32;27.80;65.30
66728;DHT22;53641;44.274;19.890;2022-09-13T10:15:04;27.80;65.10
66728;DHT22;53641;44.274;19.890;2022-09-13T10:17:30;27.40;65.70
66728;DHT22;53641;44.274;19.890;2022-09-13T10:20:00;27.20;66.70
66728;DHT22;53641;44.274;19.890;2022-09-13T10:22:35;27.20;67.20
66728;DHT22;53641;44.274;19.890;2022-09-13T10:25:25;27.50;66.60
66728;DHT22;53641;44.274;19.890;2022-09-13T10:27:54;27.00;64.70
66728;DHT22;53641;44.274;19.890;2022-09-13T10:30:38;26.80;65.90
66728;DHT22;53641;44.274;19.890;2022-09-13T10:33:06;26.70;67.50
66728;DHT22;53641;44.274;19.890;2022-09-13T10:35:46;26.60;66.20
66728;DHT22;53641;44.274;19.890;2022-09-13T10:38:25;26.70;67.50
66728;DHT22;53641;44.274;19.890;2022-09-13T10:40:52;26.80;68.90
66728;DHT22;53641;44.274;19.890;2022-09-13T10:43:17;27.00;68.70
66728;DHT22;53641;44.274;19.890;2022-09-13T10:45:48;27.20;68.30
66728;DHT22;53641;44.274;19.890;2022-09-13T10:48:17;27.50;68.30
66728;DHT22;53641;44.274;19.890;2022-09-13T10:51:00;27.70;66.00
66728;DHT22;53641;44.274;19.890;2022-09-13T10:53:34;27.80;67.10
66728;DHT22;53641;44.274;19.890;2022-09-13T10:56:01;27.90;67.80
66728;DHT22;53641;44.274;19.890;2022-09-13T10:58:27;27.60;68.00
66728;DHT22;53641;44.274;19.890;2022-09-13T11:01:38;27.20;65.80
66728;DHT22;53641;44.274;19.890;2022-09-13T11:04:35;27.10;67.00
66728;DHT22;53641;44.274;19.890;2022-09-13T11:07:19;27.10;70.40
66728;DHT22;53641;44.274;19.890;2022-09-13T11:10:01;27.10;68.00
66728;DHT22;53641;44.274;19.890;2022-09-13T11:12:48;27.20;67.60
66728;DHT22;53641;44.274;19.890;2022-09-13T11:15:29;26.70;69.30
66728;DHT22;53641;44.274;19.890;2022-09-13T11:18:22;26.30;67.80
66728;DHT22;53641;44.274;19.890;2022-09-13T11:21:07;26.00;68.40
66728;DHT22;53641;44.274;19.890;2022-09-13T11:23:45;25.90;69.90
66728;DHT22;53641;44.274;19.890;2022-09-13T11:26:27;25.80;68.20
66728;DHT22;53641;44.274;19.890;2022-09-13T11:29:13;26.00;69.90
66728;DHT22;53641;44.274;19.890;2022-09-13T11:31:46;25.80;69.90
66728;DHT22;53641;44.274;19.890;2022-09-13T11:34:26;26.00;70.80
66728;DHT22;53641;44.274;19.890;2022-09-13T11:37:04;26.20;72.00
66728;DHT22;53641;44.274;19.890;2022-09-13T11:39:38;26.60;69.40
66728;DHT22;53641;44.274;19.890;2022-09-13T11:42:33;26.80;69.50
66728;DHT22;53641;44.274;19.890;2022-09-13T11:45:20;26.90;68.30
66728;DHT22;53641;44.274;19.890;2022-09-13T11:48:01;26.90;70.40
66728;DHT22;53641;44.274;19.890;2022-09-13T11:52:20;26.90;70.60
66728;DHT22;53641;44.274;19.890;2022-09-13T11:53:46;27.00;70.70
66728;DHT22;53641;44.274;19.890;2022-09-13T11:56:28;27.20;70.10
66728;DHT22;53641;44.274;19.890;2022-09-13T11:59:18;27.00;68.30
66728;DHT22;53641;44.274;19.890;2022-09-13T12:01:52;26.90;67.90
66728;DHT22;53641;44.274;19.890;2022-09-13T12:04:28;26.40;67.00
66728;DHT22;53641;44.274;19.890;2022-09-13T12:07:01;26.30;68.70
66728;DHT22;53641;44.274;19.890;2022-09-13T12:09:32;26.40;68.30
66728;DHT22;53641;44.274;19.890;2022-09-13T12:12:10;26.50;70.20
66728;DHT22;53641;44.274;19.890;2022-09-13T12:14:44;26.50;68.20
66728;DHT22;53641;44.274;19.890;2022-09-13T12:17:22;26.40;69.80
66728;DHT22;53641;44.274;19.890;2022-09-13T12:19:51;26.30;69.10
66728;DHT22;53641;44.274;19.890;2022-09-13T12:22:21;26.10;69.60
66728;DHT22;53641;44.274;19.890;2022-09-13T12:24:53;26.00;69.50
66728;DHT22;53641;44.274;19.890;2022-09-13T12:28:32;25.90;68.60
66728;DHT22;53641;44.274;19.890;2022-09-13T12:30:21;26.30;69.50
66728;DHT22;53641;44.274;19.890;2022-09-13T12:32:48;26.40;68.10
66728;DHT22;53641;44.274;19.890;2022-09-13T12:35:29;26.60;69.10
66728;DHT22;53641;44.274;19.890;2022-09-13T12:38:10;26.60;69.60
66728;DHT22;53641;44.274;19.890;2022-09-13T12:40:50;26.80;68.90
66728;DHT22;53641;44.274;19.890;2022-09-13T12:46:26;26.90;70.50
66728;DHT22;53641;44.274;19.890;2022-09-13T12:49:13;27.10;70.80
66728;DHT22;53641;44.274;19.890;2022-09-13T12:52:15;27.20;69.40
66728;DHT22;53641;44.274;19.890;2022-09-13T12:55:11;27.10;69.40
66728;DHT22;53641;44.274;19.890;2022-09-13T12:57:52;27.00;67.40
66728;DHT22;53641;44.274;19.890;2022-09-13T13:00:24;27.00;70.00
66728;DHT22;53641;44.274;19.890;2022-09-13T13:02:56;27.00;68.80
66728;DHT22;53641;44.274;19.890;2022-09-13T13:05:32;26.80;68.70
66728;DHT22;53641;44.274;19.890;2022-09-13T13:08:15;26.70;68.40
66728;DHT22;53641;44.274;19.890;2022-09-13T13:10:43;26.70;68.30
66728;DHT22;53641;44.274;19.890;2022-09-13T13:13:21;26.60;68.10
66728;DHT22;53641;44.274;19.890;2022-09-13T13:15:55;26.50;67.60
66728;DHT22;53641;44.274;19.890;2022-09-13T13:18:46;26.30;68.70
66728;DHT22;53641;44.274;19.890;2022-09-13T13:21:25;26.30;69.20
66728;DHT22;53641;44.274;19.890;2022-09-13T13:27:00;26.40;68.40
66728;DHT22;53641;44.274;19.890;2022-09-13T13:29:30;26.40;69.00
66728;DHT22;53641;44.274;19.890;2022-09-13T13:32:09;26.30;67.50
66728;DHT22;53641;44.274;19.890;2022-09-13T13:34:44;26.20;67.80
66728;DHT22;53641;44.274;19.890;2022-09-13T13:40:23;26.10;70.00
66728;DHT22;53641;44.274;19.890;2022-09-13T13:42:50;26.00;68.30
66728;DHT22;53641;44.274;19.890;2022-09-13T13:45:36;26.10;68.30
66728;DHT22;53641;44.274;19.890;2022-09-13T13:48:10;26.30;69.50
66728;DHT22;53641;44.274;19.890;2022-09-13T13:51:14;26.50;69.70
66728;DHT22;53641;44.274;19.890;2022-09-13T13:53:43;26.50;69.50
66728;DHT22;53641;44.274;19.890;2022-09-13T13:56:27;26.50;68.70
66728;DHT22;53641;44.274;19.890;2022-09-13T13:59:03;26.40;69.00
66728;DHT22;53641;44.274;19.890;2022-09-13T14:01:33;26.30;67.70
66728;DHT22;53641;44.274;19.890;2022-09-13T14:04:35;26.30;67.70
66728;DHT22;53641;44.274;19.890;2022-09-13T14:07:18;26.30;68.60
66728;DHT22;53641;44.274;19.890;2022-09-13T14:10:00;26.40;69.80
66728;DHT22;53641;44.274;19.890;2022-09-13T14:12:53;26.40;68.70
66728;DHT22;53641;44.274;19.890;2022-09-13T14:15:48;26.30;69.50
66728;DHT22;53641;44.274;19.890;2022-09-13T14:18:26;26.30;68.60
66728;DHT22;53641;44.274;19.890;2022-09-13T14:21:01;26.30;67.40
66728;DHT22;53641;44.274;19.890;2022-09-13T14:23:28;26.10;69.00
66728;DHT22;53641;44.274;19.890;2022-09-13T14:25:58;26.00;69.20
66728;DHT22;53641;44.274;19.890;2022-09-13T14:28:25;25.80;69.50
66728;DHT22;53641;44.274;19.890;2022-09-13T14:30:56;25.80;68.90
66728;DHT22;53641;44.274;19.890;2022-09-13T14:33:25;25.70;69.40
66728;DHT22;53641;44.274;19.890;2022-09-13T14:35:57;25.60;70.00
66728;DHT22;53641;44.274;19.890;2022-09-13T14:38:26;25.70;69.80
66728;DHT22;53641;44.274;19.890;2022-09-13T14:41:00;25.80;70.10
66728;DHT22;53641;44.274;19.890;2022-09-13T14:43:28;26.00;69.80
66728;DHT22;53641;44.274;19.890;2022-09-13T14:46:03;26.10;69.80
66728;DHT22;53641;44.274;19.890;2022-09-13T14:48:34;26.10;68.90
66728;DHT22;53641;44.274;19.890;2022-09-13T14:51:05;26.10;68.70
66728;DHT22;53641;44.274;19.890;2022-09-13T14:53:33;26.20;70.00
66728;DHT22;53641;44.274;19.890;2022-09-13T14:56:07;26.10;69.30
66728;DHT22;53641;44.274;19.890;2022-09-13T14:58:42;26.00;70.20
66728;DHT22;53641;44.274;19.890;2022-09-13T15:01:11;26.00;70.10
66728;DHT22;53641;44.274;19.890;2022-09-13T15:03:45;25.80;69.90
66728;DHT22;53641;44.274;19.890;2022-09-13T15:06:20;25.90;70.10
66728;DHT22;53641;44.274;19.890;2022-09-13T15:08:47;25.80;70.00
66728;DHT22;53641;44.274;19.890;2022-09-13T15:11:25;25.80;70.00
66728;DHT22;53641;44.274;19.890;2022-09-13T15:13:59;25.60;69.60
66728;DHT22;53641;44.274;19.890;2022-09-13T15:16:30;25.50;70.20
66728;DHT22;53641;44.274;19.890;2022-09-13T15:19:34;25.40;70.30
66728;DHT22;53641;44.274;19.890;2022-09-13T15:21:41;25.40;70.30
66728;DHT22;53641;44.274;19.890;2022-09-13T15:24:24;25.30;70.00
66728;DHT22;53641;44.274;19.890;2022-09-13T15:27:02;25.20;70.20
66728;DHT22;53641;44.274;19.890;2022-09-13T15:29:28;25.20;71.70
66728;DHT22;53641;44.274;19.890;2022-09-13T15:32:00;25.10;72.30
66728;DHT22;53641;44.274;19.890;2022-09-13T15:34:29;25.10;72.00
66728;DHT22;53641;44.274;19.890;2022-09-13T15:37:12;25.10;72.10
66728;DHT22;53641;44.274;19.890;2022-09-13T15:39:42;25.00;71.80
66728;DHT22;53641;44.274;19.890;2022-09-13T15:42:08;24.90;72.90
66728;DHT22;53641;44.274;19.890;2022-09-13T15:44:34;24.80;72.70
66728;DHT22;53641;44.274;19.890;2022-09-13T15:47:02;24.80;73.30
66728;DHT22;53641;44.274;19.890;2022-09-13T15:49:32;24.70;73.40
66728;DHT22;53641;44.274;19.890;2022-09-13T15:52:02;24.50;74.00
66728;DHT22;53641;44.274;19.890;2022-09-13T15:54:37;24.50;74.70
66728;DHT22;53641;44.274;19.890;2022-09-13T15:57:08;24.50;75.00
66728;DHT22;53641;44.274;19.890;2022-09-13T15:59:34;24.50;74.80
66728;DHT22;53641;44.274;19.890;2022-09-13T16:02:01;24.40;75.30
66728;DHT22;53641;44.274;19.890;2022-09-13T16:04:37;24.40;75.20
66728;DHT22;53641;44.274;19.890;2022-09-13T16:07:03;24.30;74.60
66728;DHT22;53641;44.274;19.890;2022-09-13T16:09:28;24.30;74.60